Time;durP1;ratioP1;P1;durP2;ratioP2;P2;SDS_P1;SDS_P2;PMS_P1;PMS_P2;Temp;Humidity;BMP_temperature;BMP_pressure;BME280_temperature;BME280_humidity;BME280_pressure;Samples;Min_cycle;Max_cycle;Signal;HPM_P1;HPM_P2
2024/02/13 00:00:07;;;;;;;4.28;4.00;;;3.70;99.90;;;;;;5002300;28;20209;-62
2024/02/13 00:02:36;;;;;;;4.25;3.85;;;3.60;99.90;;;;;;5009751;28;20623;-62
2024/02/13 00:05:03;;;;;;;4.90;3.63;;;3.60;99.90;;;;;;5001666;28;20236;-63
2024/02/13 00:07:30;;;;;;;7.60;4.38;;;3.50;99.90;;;;;;5005195;28;20207;-62
2024/02/13 00:09:56;;;;;;;7.45;4.55;;;3.40;99.90;;;;;;5002901;28;20215;-62
2024/02/13 00:12:23;;;;;;;4.53;4.05;;;3.40;99.90;;;;;;5004975;28;20207;-63
2024/02/13 00:14:51;;;;;;;4.55;3.35;;;3.40;99.90;;;;;;4999978;28;20303;-63
2024/02/13 00:17:18;;;;;;;10.70;5.13;;;3.30;99.90;;;;;;4995693;28;20219;-62
2024/02/13 00:19:46;;;;;;;5.25;4.65;;;3.30;99.90;;;;;;5007247;28;20204;-62
2024/02/13 00:22:14;;;;;;;8.98;4.88;;;3.20;99.90;;;;;;5006254;28;20207;-63
2024/02/13 00:24:43;;;;;;;5.55;3.92;;;3.20;99.90;;;;;;5007881;28;20321;-63
2024/02/13 00:27:10;;;;;;;11.85;4.25;;;3.20;99.90;;;;;;5009237;28;20216;-63
2024/02/13 00:29:37;;;;;;;3.92;3.63;;;3.10;99.90;;;;;;5008988;28;20258;-63
2024/02/13 00:32:05;;;;;;;4.30;3.90;;;3.10;99.90;;;;;;5005942;28;20218;-63
2024/02/13 00:34:32;;;;;;;6.10;4.35;;;3.10;99.90;;;;;;5009605;28;20238;-63
2024/02/13 00:37:00;;;;;;;4.18;3.88;;;3.10;99.90;;;;;;5009465;28;20215;-62
2024/02/13 00:39:27;;;;;;;3.85;3.42;;;3.00;99.90;;;;;;5008734;28;20295;-63
2024/02/13 00:41:55;;;;;;;5.78;4.50;;;3.00;99.90;;;;;;5008713;28;20214;-63
2024/02/13 00:44:22;;;;;;;5.03;4.30;;;3.00;99.90;;;;;;5009151;28;20736;-62
2024/02/13 00:46:50;;;;;;;6.13;4.55;;;2.90;99.90;;;;;;5008675;28;20663;-63
2024/02/13 00:49:17;;;;;;;4.38;3.97;;;2.90;99.90;;;;;;5008535;28;20228;-63
2024/02/13 00:51:43;;;;;;;5.28;4.88;;;2.90;99.90;;;;;;5008341;28;20585;-63
2024/02/13 00:54:13;;;;;;;4.82;4.32;;;2.90;99.90;;;;;;5009028;28;20228;-63
2024/02/13 00:56:41;;;;;;;6.40;5.80;;;2.90;99.90;;;;;;5009076;28;20227;-62
2024/02/13 00:59:08;;;;;;;4.13;3.72;;;2.80;99.90;;;;;;5008930;28;20307;-62
2024/02/13 01:01:35;;;;;;;6.22;3.70;;;2.80;99.90;;;;;;5008015;28;20215;-62
2024/02/13 01:04:04;;;;;;;9.07;5.38;;;2.80;99.90;;;;;;5008302;28;20246;-62
2024/02/13 01:06:31;;;;;;;7.40;3.88;;;2.70;99.90;;;;;;5008778;28;20216;-63
2024/02/13 01:08:58;;;;;;;9.60;6.10;;;2.70;99.90;;;;;;5008555;28;20338;-63
2024/02/13 01:11:26;;;;;;;4.95;4.13;;;2.70;99.90;;;;;;5008164;28;20212;-62
2024/02/13 01:13:53;;;;;;;4.57;4.05;;;2.60;99.90;;;;;;5008798;28;20319;-63
2024/02/13 01:16:21;;;;;;;4.43;3.33;;;2.60;99.90;;;;;;5008817;28;20254;-63
2024/02/13 01:18:51;;;;;;;5.85;3.35;;;2.60;99.90;;;;;;5008680;28;20245;-63
2024/02/13 01:21:18;;;;;;;6.93;3.55;;;2.60;99.90;;;;;;5007919;28;20289;-63
2024/02/13 01:23:46;;;;;;;5.85;3.80;;;2.60;99.90;;;;;;5008061;28;20220;-62
2024/02/13 01:26:13;;;;;;;3.58;3.28;;;2.50;99.90;;;;;;5008717;28;20243;-62
2024/02/13 01:28:41;;;;;;;3.88;3.50;;;2.50;99.90;;;;;;5008103;28;20220;-62
2024/02/13 01:31:08;;;;;;;5.47;3.17;;;2.50;99.90;;;;;;5008207;28;20222;-61
2024/02/13 01:33:35;;;;;;;2.35;2.20;;;2.50;99.90;;;;;;5003877;28;20211;-63
2024/02/13 01:36:06;;;;;;;3.10;2.88;;;2.40;99.90;;;;;;4989475;28;20299;-63
2024/02/13 01:38:33;;;;;;;2.35;2.00;;;2.40;99.90;;;;;;4989987;28;20208;-63
2024/02/13 01:41:00;;;;;;;3.50;3.20;;;2.40;99.90;;;;;;4989761;28;20322;-62
2024/02/13 01:43:29;;;;;;;3.45;3.05;;;2.40;99.90;;;;;;4989235;28;20709;-62
2024/02/13 01:45:59;;;;;;;7.00;3.55;;;2.40;99.90;;;;;;4989774;28;20208;-63
2024/02/13 01:48:26;;;;;;;3.22;2.97;;;2.30;99.90;;;;;;4996519;28;20689;-63
2024/02/13 01:50:55;;;;;;;4.30;3.33;;;2.30;99.90;;;;;;5009099;28;20211;-63
2024/02/13 01:53:25;;;;;;;3.55;3.20;;;2.30;99.90;;;;;;5008632;28;20211;-62
2024/02/13 01:55:53;;;;;;;3.10;2.85;;;2.30;99.90;;;;;;5008812;28;20219;-63
2024/02/13 01:58:20;;;;;;;3.67;3.33;;;2.30;99.90;;;;;;5008894;28;20211;-62
2024/02/13 02:00:48;;;;;;;2.60;2.40;;;2.20;99.90;;;;;;5008959;28;20294;-63
2024/02/13 02:03:19;;;;;;;3.08;2.42;;;2.20;99.90;;;;;;5008332;28;20227;-63
2024/02/13 02:05:45;;;;;;;3.17;2.97;;;2.20;99.90;;;;;;5008975;28;20614;-63
2024/02/13 02:08:13;;;;;;;3.88;3.22;;;2.20;99.90;;;;;;5008808;28;20644;-63
2024/02/13 02:10:42;;;;;;;3.20;2.85;;;2.20;99.90;;;;;;5008437;28;20204;-63
2024/02/13 02:13:09;;;;;;;6.07;3.58;;;2.10;99.90;;;;;;5008425;28;20215;-62
2024/02/13 02:15:36;;;;;;;4.43;2.90;;;2.10;99.90;;;;;;5008668;28;20318;-63
2024/02/13 02:18:04;;;;;;;3.22;3.03;;;2.10;99.90;;;;;;5009141;28;20211;-62
2024/02/13 02:20:32;;;;;;;3.45;3.15;;;2.10;99.90;;;;;;5008793;28;20204;-62
2024/02/13 02:22:59;;;;;;;3.45;2.72;;;2.10;99.90;;;;;;5008527;28;20767;-63
2024/02/13 02:25:28;;;;;;;2.83;2.63;;;2.10;99.90;;;;;;5008570;28;20267;-62
2024/02/13 02:27:55;;;;;;;9.75;3.45;;;2.00;99.90;;;;;;5008662;28;20273;-62
2024/02/13 02:30:22;;;;;;;2.78;2.55;;;2.00;99.90;;;;;;5008250;28;20235;-63
2024/02/13 02:32:49;;;;;;;7.65;3.10;;;2.00;99.90;;;;;;5008295;28;20302;-62
2024/02/13 02:35:17;;;;;;;6.72;3.90;;;2.00;99.90;;;;;;5008499;28;20740;-63
2024/02/13 02:37:47;;;;;;;3.17;2.55;;;2.00;99.90;;;;;;5008669;28;20227;-63
2024/02/13 02:40:16;;;;;;;3.00;2.80;;;1.90;99.90;;;;;;5008312;28;20211;-62
2024/02/13 02:42:46;;;;;;;7.72;3.00;;;1.90;99.90;;;;;;5007852;28;20208;-63
2024/02/13 02:45:14;;;;;;;5.97;3.08;;;2.00;99.90;;;;;;5009027;28;20669;-63
2024/02/13 02:47:41;;;;;;;3.03;2.72;;;1.90;99.90;;;;;;5006937;28;20239;-63
2024/02/13 02:50:10;;;;;;;3.22;3.03;;;1.90;99.90;;;;;;5008017;28;20707;-62
2024/02/13 02:52:37;;;;;;;4.25;2.45;;;1.90;99.90;;;;;;5007815;28;20222;-63
2024/02/13 02:55:05;;;;;;;3.88;2.72;;;1.90;99.90;;;;;;5008279;28;20236;-62
2024/02/13 02:57:32;;;;;;;4.07;2.95;;;1.90;99.90;;;;;;5008332;28;20294;-62
2024/02/13 03:00:00;;;;;;;3.25;2.97;;;1.90;99.90;;;;;;5008329;28;20299;-63
2024/02/13 03:02:27;;;;;;;3.30;2.70;;;1.90;99.90;;;;;;5010793;28;20218;-63
2024/02/13 03:04:55;;;;;;;3.45;2.40;;;1.90;99.90;;;;;;5012058;28;20235;-62
2024/02/13 03:07:24;;;;;;;3.47;3.17;;;1.80;99.90;;;;;;5012045;28;20212;-62
2024/02/13 03:09:51;;;;;;;3.58;2.35;;;1.80;99.90;;;;;;5011608;28;20238;-63
2024/02/13 03:12:18;;;;;;;4.05;3.05;;;1.80;99.90;;;;;;5011591;28;20583;-63
2024/02/13 03:14:45;;;;;;;4.18;2.80;;;1.80;99.90;;;;;;5012036;28;20674;-63
2024/02/13 03:17:13;;;;;;;3.30;2.20;;;1.80;99.90;;;;;;5011997;28;20271;-62
2024/02/13 03:19:40;;;;;;;4.75;2.70;;;1.70;99.90;;;;;;5011759;28;20294;-63
2024/02/13 03:22:07;;;;;;;6.15;3.10;;;1.70;99.90;;;;;;5011550;28;20238;-63
2024/02/13 03:24:34;;;;;;;3.38;2.42;;;1.70;99.90;;;;;;5011459;28;20239;-62
2024/02/13 03:27:01;;;;;;;2.50;2.30;;;1.70;99.90;;;;;;5011856;28;20222;-62
2024/02/13 03:29:28;;;;;;;3.03;2.72;;;1.70;99.90;;;;;;5011428;28;20323;-62
2024/02/13 03:31:55;;;;;;;4.05;3.10;;;1.70;99.90;;;;;;5011068;28;20208;-63
2024/02/13 03:34:23;;;;;;;3.80;2.70;;;1.70;99.90;;;;;;5011332;28;20641;-63
2024/02/13 03:36:50;;;;;;;5.00;2.00;;;1.70;99.90;;;;;;5011194;28;20299;-63
2024/02/13 03:39:17;;;;;;;6.07;2.78;;;1.60;99.90;;;;;;5011388;28;20298;-63
2024/02/13 03:41:46;;;;;;;2.75;2.50;;;1.60;99.90;;;;;;5011043;28;20322;-62
2024/02/13 03:44:13;;;;;;;2.70;2.50;;;1.60;99.90;;;;;;5011341;28;20263;-62
2024/02/13 03:46:41;;;;;;;2.45;2.25;;;1.60;99.90;;;;;;5011252;28;20299;-62
2024/02/13 03:49:09;;;;;;;3.72;3.42;;;1.60;99.90;;;;;;5011091;28;20608;-62
2024/02/13 03:51:38;;;;;;;3.45;2.65;;;1.60;99.90;;;;;;5010523;28;20216;-62
2024/02/13 03:54:07;;;;;;;3.40;2.70;;;1.60;99.90;;;;;;5011259;28;20240;-63
2024/02/13 03:56:33;;;;;;;5.10;3.35;;;1.60;99.90;;;;;;5011426;28;20223;-63
2024/02/13 03:59:02;;;;;;;6.93;2.72;;;1.60;99.90;;;;;;5010847;28;20215;-63
2024/02/13 04:01:29;;;;;;;2.92;2.72;;;1.60;99.90;;;;;;5010613;28;20632;-63
2024/02/13 04:03:56;;;;;;;2.50;2.30;;;1.50;99.90;;;;;;5010815;28;20235;-63
2024/02/13 04:06:23;;;;;;;3.28;2.60;;;1.50;99.90;;;;;;5010988;28;20700;-63
2024/02/13 04:08:51;;;;;;;4.38;3.47;;;1.50;99.90;;;;;;5010688;28;20211;-63
2024/02/13 04:11:18;;;;;;;3.50;2.78;;;1.50;99.90;;;;;;5010239;28;20218;-63
2024/02/13 04:13:45;;;;;;;7.03;3.05;;;1.50;99.90;;;;;;5010660;28;20212;-62
2024/02/13 04:16:12;;;;;;;3.28;2.15;;;1.50;99.90;;;;;;5010828;28;20233;-62
2024/02/13 04:18:40;;;;;;;2.45;2.25;;;1.60;99.90;;;;;;5010425;28;20222;-63
2024/02/13 04:21:06;;;;;;;4.35;4.15;;;1.60;99.90;;;;;;5010940;28;20203;-62
2024/02/13 04:23:35;;;;;;;3.28;2.65;;;1.50;99.90;;;;;;5010695;28;21027;-62
2024/02/13 04:26:05;;;;;;;5.07;2.58;;;1.50;99.90;;;;;;5010781;28;20223;-63
2024/02/13 04:28:32;;;;;;;2.40;2.20;;;1.50;99.90;;;;;;5047206;22;20245;-62
2024/02/13 04:30:59;;;;;;;2.60;2.40;;;1.50;99.90;;;;;;5070371;28;20229;-62
2024/02/13 04:33:26;;;;;;;7.57;4.85;;;1.50;99.90;;;;;;5069590;28;20304;-62
2024/02/13 04:35:53;;;;;;;3.53;3.10;;;1.50;99.90;;;;;;5069545;28;20419;-62
2024/02/13 04:38:23;;;;;;;4.50;3.33;;;1.50;99.90;;;;;;5069748;28;20220;-63
2024/02/13 04:40:50;;;;;;;2.80;2.55;;;1.50;99.90;;;;;;5067612;28;20210;-62
2024/02/13 04:43:18;;;;;;;2.58;2.30;;;1.50;99.90;;;;;;5069503;28;20220;-62
2024/02/13 04:45:45;;;;;;;3.13;2.88;;;1.50;99.90;;;;;;5069941;28;20228;-62
2024/02/13 04:48:13;;;;;;;6.65;2.97;;;1.60;99.90;;;;;;5069845;28;20319;-62
2024/02/13 04:50:39;;;;;;;3.10;2.60;;;1.60;99.90;;;;;;5069472;28;20226;-62
2024/02/13 04:53:07;;;;;;;3.67;3.03;;;1.60;99.90;;;;;;5069123;28;20209;-62
2024/02/13 04:55:34;;;;;;;5.18;2.88;;;1.60;99.90;;;;;;5070028;28;20213;-62
2024/02/13 04:58:02;;;;;;;3.47;3.17;;;1.50;99.90;;;;;;5069958;28;20590;-61
2024/02/13 05:00:35;;;;;;;7.72;1.98;;;1.50;99.90;;;;;;5069568;28;20224;-61
2024/02/13 05:03:03;;;;;;;3.00;2.80;;;1.50;99.90;;;;;;5069109;28;20209;-62
2024/02/13 05:08:15;;;;;;;3.50;2.67;;;1.50;99.90;;;;;;5069447;28;20262;-61
2024/02/13 05:10:42;;;;;;;3.60;3.00;;;1.50;99.90;;;;;;5069196;28;20233;-62
2024/02/13 05:13:09;;;;;;;3.42;2.95;;;1.50;99.90;;;;;;5068762;28;20210;-62
2024/02/13 05:15:37;;;;;;;4.00;3.05;;;1.50;99.90;;;;;;5069411;28;20205;-61
2024/02/13 05:18:06;;;;;;;4.13;3.00;;;1.50;99.90;;;;;;5069101;28;20225;-60
2024/02/13 05:20:35;;;;;;;2.65;2.45;;;1.40;99.90;;;;;;5069225;28;20209;-59
2024/02/13 05:23:02;;;;;;;3.72;3.42;;;1.50;99.90;;;;;;5068849;28;20303;-63
2024/02/13 05:25:29;;;;;;;3.28;2.70;;;1.50;99.90;;;;;;5068832;28;20213;-61
2024/02/13 05:27:56;;;;;;;3.85;3.55;;;1.50;99.90;;;;;;5069168;28;20209;-62
2024/02/13 05:30:23;;;;;;;5.03;3.50;;;1.50;99.90;;;;;;5068764;28;20233;-60
2024/02/13 05:32:51;;;;;;;3.55;2.75;;;1.50;99.90;;;;;;5068434;28;20296;-62
2024/02/13 05:35:18;;;;;;;2.92;2.72;;;1.50;99.90;;;;;;5068899;28;20220;-62
2024/02/13 05:37:44;;;;;;;3.40;3.10;;;1.60;99.90;;;;;;5069009;28;20205;-62
2024/02/13 05:40:12;;;;;;;9.75;3.00;;;1.60;99.90;;;;;;5068649;28;20222;-62
2024/02/13 05:42:39;;;;;;;4.75;3.50;;;1.60;99.90;;;;;;5068331;28;20305;-60
2024/02/13 05:45:07;;;;;;;5.65;4.45;;;1.60;99.90;;;;;;5068752;28;20838;-61
2024/02/13 05:47:35;;;;;;;3.78;2.83;;;1.60;99.90;;;;;;5068697;28;20213;-62
2024/02/13 05:50:06;;;;;;;3.50;3.30;;;1.60;99.90;;;;;;5068339;28;20264;-62
2024/02/13 05:52:33;;;;;;;3.75;3.40;;;1.60;99.90;;;;;;5068331;28;20293;-62
2024/02/13 05:55:00;;;;;;;3.70;2.78;;;1.60;99.90;;;;;;5068680;28;20640;-62
2024/02/13 05:57:27;;;;;;;7.82;3.45;;;1.70;99.90;;;;;;5068765;28;20210;-62
2024/02/13 05:59:55;;;;;;;5.43;3.05;;;1.70;99.90;;;;;;5068415;28;20632;-61
2024/02/13 06:02:22;;;;;;;3.85;2.95;;;1.70;99.90;;;;;;5068335;28;20213;-61
2024/02/13 06:04:49;;;;;;;3.45;3.03;;;1.70;99.90;;;;;;5068797;28;20248;-62
2024/02/13 06:07:17;;;;;;;5.35;4.85;;;1.70;99.90;;;;;;5068589;28;20210;-62
2024/02/13 06:09:44;;;;;;;4.70;3.90;;;1.70;99.90;;;;;;5068155;28;20233;-61
2024/02/13 06:12:12;;;;;;;3.95;3.55;;;1.70;99.90;;;;;;5068047;28;20325;-62
2024/02/13 06:14:39;;;;;;;3.92;3.55;;;1.70;99.90;;;;;;5068341;28;21036;-62
2024/02/13 06:17:07;;;;;;;3.78;3.38;;;1.70;99.90;;;;;;5068387;28;20252;-62
2024/02/13 06:19:34;;;;;;;3.08;2.60;;;1.70;99.90;;;;;;5068264;28;20268;-61
2024/02/13 06:22:01;;;;;;;3.50;3.20;;;1.70;99.90;;;;;;5068018;28;20951;-62
2024/02/13 06:24:29;;;;;;;4.50;3.25;;;1.70;99.90;;;;;;5068388;28;20213;-61
2024/02/13 06:26:56;;;;;;;8.30;3.90;;;1.70;99.90;;;;;;5067983;28;20209;-62
2024/02/13 06:29:23;;;;;;;5.20;3.22;;;1.60;99.90;;;;;;5068035;28;20236;-61
2024/02/13 06:31:54;;;;;;;4.78;3.10;;;1.60;99.90;;;;;;5068056;28;20263;-62
2024/02/13 06:34:21;;;;;;;3.83;3.35;;;1.60;99.90;;;;;;5068529;28;20213;-62
2024/02/13 06:36:48;;;;;;;4.80;2.85;;;1.60;99.90;;;;;;5070336;28;20213;-61
2024/02/13 06:39:20;;;;;;;3.50;2.72;;;1.60;99.90;;;;;;5071950;28;20236;-62
2024/02/13 06:41:49;;;;;;;5.10;3.47;;;1.60;99.90;;;;;;5071926;28;20236;-62
2024/02/13 06:44:16;;;;;;;4.68;3.90;;;1.50;99.90;;;;;;5072361;28;20206;-61
2024/02/13 06:46:43;;;;;;;4.75;4.35;;;1.60;99.90;;;;;;5072217;28;20214;-61
2024/02/13 06:49:10;;;;;;;3.85;3.47;;;1.60;99.90;;;;;;5071913;28;20320;-60
2024/02/13 06:51:37;;;;;;;5.65;4.05;;;1.60;99.90;;;;;;5071527;28;20233;-61
2024/02/13 06:54:04;;;;;;;11.30;4.18;;;1.60;99.90;;;;;;5071865;28;20220;-61
2024/02/13 06:56:31;;;;;;;4.53;3.30;;;1.60;99.90;;;;;;5072131;28;20213;-61
2024/02/13 06:58:59;;;;;;;3.50;3.20;;;1.60;99.90;;;;;;5071842;28;20241;-61
2024/02/13 07:01:26;;;;;;;6.13;3.17;;;1.60;99.90;;;;;;5071596;28;20206;-61
2024/02/13 07:03:53;;;;;;;4.40;4.07;;;1.60;99.90;;;;;;5072045;28;20210;-60
2024/02/13 07:06:20;;;;;;;5.60;3.63;;;1.60;99.90;;;;;;5071971;28;20243;-62
2024/02/13 07:08:47;;;;;;;2.95;2.70;;;1.70;99.90;;;;;;5071602;28;20234;-61
2024/02/13 07:11:13;;;;;;;4.13;3.38;;;1.70;99.90;;;;;;5071321;28;20234;-61
2024/02/13 07:13:39;;;;;;;5.10;3.67;;;1.70;99.90;;;;;;5071796;28;20676;-61
2024/02/13 07:16:08;;;;;;;9.05;4.57;;;1.80;99.90;;;;;;5071630;28;20452;-61
2024/02/13 07:18:35;;;;;;;7.20;4.13;;;1.80;99.90;;;;;;5071251;28;20596;-61
2024/02/13 07:21:06;;;;;;;5.50;4.32;;;1.80;99.90;;;;;;5071373;28;20210;-63
2024/02/13 07:23:32;;;;;;;5.53;4.85;;;1.90;99.90;;;;;;5071027;28;20267;-62
2024/02/13 07:26:00;;;;;;;5.25;4.68;;;1.90;99.90;;;;;;5071359;28;20205;-62
2024/02/13 07:28:28;;;;;;;6.65;4.38;;;1.90;99.90;;;;;;5070920;28;20237;-61
2024/02/13 07:30:55;;;;;;;5.78;5.28;;;2.00;99.90;;;;;;5071210;28;20226;-62
2024/02/13 07:33:23;;;;;;;5.55;4.97;;;2.00;99.90;;;;;;5070807;28;20205;-62
2024/02/13 07:35:50;;;;;;;5.05;4.65;;;2.10;99.90;;;;;;5071271;28;20293;-62
2024/02/13 07:38:17;;;;;;;6.93;6.22;;;2.10;99.90;;;;;;5071643;28;20206;-62
2024/02/13 07:40:44;;;;;;;6.15;5.63;;;2.20;99.90;;;;;;5071287;28;20584;-62
2024/02/13 07:43:12;;;;;;;5.10;4.60;;;2.20;99.90;;;;;;5070831;28;20309;-62
2024/02/13 07:45:39;;;;;;;4.40;4.00;;;2.20;99.90;;;;;;5071210;28;20205;-62
2024/02/13 07:48:10;;;;;;;7.00;5.53;;;2.30;99.90;;;;;;5070278;28;20266;-62
2024/02/13 07:50:38;;;;;;;5.55;4.72;;;2.30;99.90;;;;;;5070976;28;20241;-62
2024/02/13 07:53:06;;;;;;;5.78;5.28;;;2.40;99.90;;;;;;5070597;28;20304;-62
2024/02/13 07:55:35;;;;;;;5.57;4.28;;;2.40;99.90;;;;;;5070941;28;20218;-62
2024/02/13 07:58:02;;;;;;;11.02;5.47;;;2.50;99.90;;;;;;5070909;28;20214;-62
2024/02/13 08:00:31;;;;;;;8.50;4.70;;;2.50;99.90;;;;;;5070698;28;20208;-62
2024/02/13 08:02:59;;;;;;;5.55;5.18;;;2.60;99.90;;;;;;5068886;28;20252;-62
2024/02/13 08:05:26;;;;;;;5.10;4.63;;;2.60;99.90;;;;;;5070723;28;20237;-59
2024/02/13 08:07:54;;;;;;;4.80;4.20;;;2.60;99.90;;;;;;5070748;28;20216;-63
2024/02/13 08:10:21;;;;;;;6.82;4.85;;;2.70;99.90;;;;;;5070520;28;20245;-61
2024/02/13 08:12:49;;;;;;;6.40;5.13;;;2.70;99.90;;;;;;5070149;28;20209;-62
2024/02/13 08:15:16;;;;;;;6.00;4.25;;;2.80;99.90;;;;;;5070445;28;20210;-60
2024/02/13 08:17:43;;;;;;;7.00;5.13;;;2.80;99.90;;;;;;5070401;28;20216;-62
2024/02/13 08:20:10;;;;;;;4.53;4.13;;;2.90;99.90;;;;;;5070286;28;20233;-62
2024/02/13 08:22:38;;;;;;;5.40;4.85;;;2.90;99.90;;;;;;5069904;28;20210;-61
2024/02/13 08:25:07;;;;;;;8.00;5.22;;;2.90;99.90;;;;;;5070289;28;20213;-62
2024/02/13 08:27:37;;;;;;;6.45;4.97;;;2.90;99.90;;;;;;5062462;28;20259;-61
2024/02/13 08:30:09;;;;;;;5.05;4.60;;;2.90;99.90;;;;;;5069860;28;20294;-62
2024/02/13 08:32:38;;;;;;;6.05;5.45;;;2.90;99.90;;;;;;5069836;28;20606;-60
2024/02/13 08:35:05;;;;;;;7.25;6.05;;;2.90;99.90;;;;;;5070192;28;20217;-62
2024/02/13 08:37:32;;;;;;;5.07;4.18;;;2.90;99.90;;;;;;5068920;28;20288;-60
2024/02/13 08:39:59;;;;;;;7.30;5.50;;;2.90;99.90;;;;;;5069250;28;20235;-62
2024/02/13 08:42:27;;;;;;;6.57;5.38;;;3.00;99.90;;;;;;5069400;28;20293;-62
2024/02/13 08:44:56;;;;;;;8.73;6.40;;;3.00;99.90;;;;;;5070213;28;20304;-62
2024/02/13 08:47:22;;;;;;;7.68;6.28;;;3.00;99.90;;;;;;5070048;28;20214;-62
2024/02/13 08:49:49;;;;;;;11.10;7.95;;;3.00;99.90;;;;;;5069724;28;20603;-60
2024/02/13 08:52:17;;;;;;;11.63;8.77;;;3.10;99.90;;;;;;5069294;28;20236;-63
2024/02/13 08:54:44;;;;;;;8.38;7.57;;;3.20;99.90;;;;;;5068508;28;20210;-62
2024/02/13 08:57:14;;;;;;;13.15;8.93;;;3.20;99.90;;;;;;5069664;28;20212;-62
2024/02/13 08:59:42;;;;;;;9.38;8.20;;;3.30;99.90;;;;;;5068772;28;20349;-61
2024/02/13 09:02:09;;;;;;;10.48;9.48;;;3.30;99.90;;;;;;5068985;28;20679;-62
2024/02/13 09:04:36;;;;;;;9.55;7.53;;;3.40;99.90;;;;;;5069563;28;20218;-62
2024/02/13 09:07:03;;;;;;;11.57;10.38;;;3.50;99.90;;;;;;5069309;28;20213;-61
2024/02/13 09:09:32;;;;;;;12.88;9.10;;;3.60;99.90;;;;;;5069131;28;20316;-62
2024/02/13 09:11:59;;;;;;;15.43;9.88;;;3.60;99.90;;;;;;5068631;28;20229;-63
2024/02/13 09:14:26;;;;;;;15.07;9.25;;;3.70;99.90;;;;;;5069059;28;20619;-62
2024/02/13 09:16:57;;;;;;;12.93;10.63;;;3.80;99.90;;;;;;5067354;28;20202;-62
2024/02/13 09:19:25;;;;;;;12.40;9.95;;;3.90;99.90;;;;;;5066527;28;20221;-62
2024/02/13 09:21:52;;;;;;;21.52;10.00;;;4.00;99.90;;;;;;5067928;28;20202;-62
2024/02/13 09:24:19;;;;;;;17.08;10.65;;;4.10;99.90;;;;;;5065852;28;20259;-62
2024/02/13 09:26:46;;;;;;;16.90;11.63;;;4.30;99.90;;;;;;5068541;28;20208;-61
2024/02/13 09:29:12;;;;;;;17.05;13.52;;;4.50;99.90;;;;;;5067723;28;20259;-62
2024/02/13 09:31:39;;;;;;;13.43;11.63;;;4.70;99.90;;;;;;5068301;28;20222;-61
2024/02/13 09:34:08;;;;;;;20.05;12.05;;;5.00;99.90;;;;;;5068856;28;20220;-61
2024/02/13 09:36:37;;;;;;;17.50;11.13;;;5.20;99.90;;;;;;5049048;28;20221;-61
2024/02/13 09:39:04;;;;;;;15.68;11.63;;;5.40;99.90;;;;;;5048660;28;21005;-61
2024/02/13 09:41:32;;;;;;;19.25;11.55;;;5.60;99.90;;;;;;5065009;28;20202;-61
2024/02/13 09:43:59;;;;;;;16.60;13.27;;;5.60;99.90;;;;;;5068832;28;20216;-61
2024/02/13 09:46:27;;;;;;;21.08;12.65;;;5.70;99.90;;;;;;5068847;28;20631;-60
2024/02/13 09:48:56;;;;;;;15.55;13.85;;;5.70;99.90;;;;;;5068658;28;20265;-62
2024/02/13 09:51:25;;;;;;;15.77;11.45;;;5.80;99.90;;;;;;5068122;28;20236;-63
2024/02/13 09:53:52;;;;;;;16.08;12.23;;;5.90;99.90;;;;;;5068824;28;20205;-60
2024/02/13 09:56:19;;;;;;;18.27;12.02;;;6.10;99.90;;;;;;5068779;28;20304;-60
2024/02/13 09:58:47;;;;;;;21.80;14.35;;;6.10;99.90;;;;;;5068229;28;20732;-61
2024/02/13 10:01:14;;;;;;;15.30;11.65;;;6.00;99.90;;;;;;5067984;28;20627;-61
2024/02/13 10:03:41;;;;;;;15.88;10.25;;;6.00;99.90;;;;;;5068734;28;20587;-62
2024/02/13 10:06:09;;;;;;;16.33;13.48;;;6.10;99.90;;;;;;5063765;28;20730;-63
2024/02/13 10:08:39;;;;;;;14.70;11.77;;;6.00;99.90;;;;;;5051753;28;20226;-61
2024/02/13 10:11:08;;;;;;;17.00;10.85;;;6.10;99.90;;;;;;5059934;28;20229;-61
2024/02/13 10:13:38;;;;;;;15.32;11.32;;;6.10;99.90;;;;;;5058016;28;20232;-61
2024/02/13 10:16:05;;;;;;;15.57;10.52;;;6.10;99.90;;;;;;5065023;28;20209;-61
2024/02/13 10:18:35;;;;;;;13.15;10.25;;;6.10;99.90;;;;;;5067204;28;20261;-61
2024/02/13 10:21:05;;;;;;;14.82;10.20;;;6.20;99.90;;;;;;5056025;28;20231;-62
2024/02/13 10:23:33;;;;;;;11.77;10.10;;;6.20;99.90;;;;;;5054993;28;20216;-61
2024/02/13 10:26:07;;;;;;;12.52;8.90;;;6.30;99.90;;;;;;5067169;28;20232;-58
2024/02/13 10:28:34;;;;;;;14.50;10.20;;;6.40;99.90;;;;;;5087019;22;20238;-65
2024/02/13 10:31:01;;;;;;;11.60;8.10;;;6.40;99.90;;;;;;5017874;28;20219;-64
2024/02/13 10:33:28;;;;;;;10.02;9.05;;;6.50;99.90;;;;;;5018930;28;20215;-65
2024/02/13 10:35:56;;;;;;;9.57;8.10;;;6.60;99.90;;;;;;5009702;28;20312;-65
2024/02/13 10:38:28;;;;;;;9.85;7.93;;;6.70;99.90;;;;;;5019801;28;20215;-65
2024/02/13 10:40:57;;;;;;;9.55;8.00;;;6.90;99.90;;;;;;4991347;28;20212;-64
2024/02/13 10:43:27;;;;;;;8.60;5.97;;;7.20;99.90;;;;;;5002863;28;20215;-65
2024/02/13 10:45:58;;;;;;;10.77;8.13;;;7.40;99.90;;;;;;5008054;28;20305;-64
2024/02/13 10:48:37;;;;;;;7.60;6.88;;;7.50;99.90;;;;;;5007349;28;20208;-64
2024/02/13 10:51:07;;;;;;;9.93;6.72;;;7.60;99.90;;;;;;4997208;28;20223;-65
2024/02/13 10:53:36;;;;;;;7.18;6.47;;;7.60;99.90;;;;;;5007445;28;20215;-65
2024/02/13 10:56:03;;;;;;;7.28;6.50;;;7.70;99.90;;;;;;5007187;28;20562;-65
2024/02/13 10:58:32;;;;;;;5.50;5.00;;;7.80;99.90;;;;;;4998594;28;20219;-66
2024/02/13 11:01:00;;;;;;;8.10;5.75;;;7.90;99.90;;;;;;5007436;28;20211;-65
2024/02/13 11:03:28;;;;;;;9.50;6.07;;;7.90;99.90;;;;;;5006993;28;20218;-66
2024/02/13 11:05:55;;;;;;;6.05;4.93;;;7.90;99.90;;;;;;5006318;28;20694;-65
2024/02/13 11:08:23;;;;;;;9.00;5.53;;;7.90;99.90;;;;;;4997987;28;20669;-65
2024/02/13 11:10:49;;;;;;;6.50;5.43;;;7.90;99.90;;;;;;4996811;28;20258;-65
2024/02/13 11:13:18;;;;;;;9.13;8.52;;;7.90;99.90;;;;;;5006696;28;20231;-65
2024/02/13 11:15:46;;;;;;;6.43;5.00;;;8.00;99.90;;;;;;5006864;28;20299;-65
2024/02/13 11:18:14;;;;;;;6.00;5.03;;;8.00;99.90;;;;;;4990818;28;20215;-65
2024/02/13 11:20:42;;;;;;;5.13;4.72;;;8.10;99.90;;;;;;5002594;28;20231;-65
2024/02/13 11:23:12;;;;;;;7.13;5.10;;;8.10;99.90;;;;;;5002000;28;20212;-65
2024/02/13 11:25:40;;;;;;;5.85;4.70;;;8.20;99.90;;;;;;5008660;28;20204;-65
2024/02/13 11:28:10;;;;;;;6.30;5.80;;;8.20;99.90;;;;;;5004845;28;20204;-65
2024/02/13 11:30:40;;;;;;;6.47;4.88;;;8.20;99.90;;;;;;5010207;28;20322;-65
2024/02/13 11:33:11;;;;;;;6.30;4.47;;;8.20;99.90;;;;;;5010392;28;20290;-65
2024/02/13 11:35:41;;;;;;;4.18;3.42;;;8.20;99.90;;;;;;5011304;28;20663;-65
2024/02/13 11:38:11;;;;;;;5.13;3.85;;;8.30;99.90;;;;;;5011254;28;20211;-64
2024/02/13 11:40:40;;;;;;;5.55;4.07;;;8.30;99.90;;;;;;5023049;28;20223;-65
2024/02/13 11:43:18;;;;;;;4.80;4.40;;;8.40;99.90;;;;;;5030239;28;20207;-66
2024/02/13 11:45:45;;;;;;;5.97;4.57;;;8.50;99.90;;;;;;5030613;28;20215;-66
2024/02/13 11:48:16;;;;;;;4.40;4.00;;;8.70;99.90;;;;;;5030791;28;20781;-66
2024/02/13 11:50:43;;;;;;;4.80;3.78;;;8.90;99.90;;;;;;5030609;28;20309;-65
2024/02/13 11:53:09;;;;;;;2.77;2.53;;;9.20;99.90;;;;;;5030164;28;20233;-65
2024/02/13 11:55:37;;;;;;;3.33;2.83;;;9.40;99.90;;;;;;5030688;28;20456;-65
2024/02/13 11:58:09;;;;;;;4.07;3.57;;;9.60;99.90;;;;;;5030135;28;20485;-66
2024/02/13 12:00:36;;;;;;;3.80;3.50;;;9.80;99.90;;;;;;5030301;28;20509;-66
2024/02/13 12:03:04;;;;;;;3.03;2.80;;;;;;;;;;5030128;28;20450;-65
2024/02/13 12:05:32;;;;;;;2.93;2.63;;;10.30;99.90;;;;;;5030331;28;20454;-65
2024/02/13 12:07:59;;;;;;;3.20;3.00;;;10.40;99.90;;;;;;5030396;28;20460;-65
2024/02/13 12:10:28;;;;;;;6.67;2.40;;;10.60;99.90;;;;;;5030176;28;20473;-65
2024/02/13 12:12:55;;;;;;;2.83;2.63;;;10.70;99.90;;;;;;5029765;28;20992;-66
2024/02/13 12:15:22;;;;;;;2.50;2.30;;;10.80;99.90;;;;;;5030204;28;20452;-65
2024/02/13 12:17:57;;;;;;;4.97;3.30;;;10.90;99.90;;;;;;5029562;28;20458;-66
2024/02/13 12:20:28;;;;;;;3.90;3.17;;;11.00;99.90;;;;;;5029993;28;20480;-65
2024/02/13 12:22:59;;;;;;;3.90;3.03;;;10.90;99.90;;;;;;5029609;28;20481;-66
2024/02/13 12:25:26;;;;;;;3.80;3.50;;;11.00;99.90;;;;;;5030159;28;20809;-65
2024/02/13 12:28:00;;;;;;;3.40;2.63;;;11.00;99.90;;;;;;5030181;28;20453;-65
2024/02/13 12:30:27;;;;;;;4.57;3.10;;;11.20;99.90;;;;;;5029678;28;20494;-66
2024/02/13 12:32:54;;;;;;;2.53;2.37;;;11.40;99.90;;;;;;5025486;28;21085;-64
2024/02/13 12:35:32;;;;;;;2.97;2.67;;;11.60;99.90;;;;;;5008716;28;20965;-65
2024/02/13 12:38:12;;;;;;;1.73;1.60;;;11.80;99.90;;;;;;5010247;28;20569;-66
2024/02/13 12:40:39;;;;;;;3.20;2.20;;;12.00;99.90;;;;;;5009801;28;20470;-66
2024/02/13 12:43:06;;;;;;;3.40;3.10;;;12.30;99.90;;;;;;5009349;28;20446;-65
2024/02/13 12:45:41;;;;;;;5.90;2.83;;;;;;;;;;5009939;28;20447;-65
2024/02/13 12:48:08;;;;;;;2.30;2.10;;;12.70;99.90;;;;;;5009777;28;20669;-65
2024/02/13 12:50:35;;;;;;;2.30;2.10;;;13.00;99.90;;;;;;5009537;28;20463;-65
2024/02/13 12:53:03;;;;;;;2.97;2.53;;;13.20;99.90;;;;;;5009514;28;20490;-66
2024/02/13 12:55:32;;;;;;;2.27;2.07;;;13.60;99.90;;;;;;5009995;28;20481;-65
2024/02/13 12:57:58;;;;;;;2.50;2.30;;;13.90;99.90;;;;;;5009385;28;20513;-65
2024/02/13 13:00:28;;;;;;;2.27;1.80;;;14.00;99.90;;;;;;5009408;28;20544;-66